createdAt,value
2018-09-03T00:00:26.761Z,45.72
2018-09-03T00:01:36.432Z,45.52
2018-09-03T00:02:45.874Z,45.72
2018-09-03T00:03:55.309Z,45.62
2018-09-03T00:05:04.747Z,45.72
2018-09-03T00:06:14.176Z,45.62
2018-09-03T00:07:23.118Z,45.81
2018-09-03T00:08:32.589Z,45.52
2018-09-03T00:09:41.768Z,45.81
2018-09-03T00:10:50.433Z,45.62
2018-09-03T00:11:59.608Z,45.72
2018-09-03T00:13:08.780Z,45.72
2018-09-03T00:14:17.771Z,45.52
2018-09-03T00:15:27.204Z,45.72
2018-09-03T00:16:36.885Z,45.81
2018-09-03T00:17:45.794Z,45.52
2018-09-03T00:18:54.951Z,45.81
2018-09-03T00:20:04.646Z,45.62
2018-09-03T00:21:13.812Z,45.72
2018-09-03T00:22:22.979Z,45.81
2018-09-03T00:23:32.649Z,45.52
2018-09-03T00:24:42.598Z,45.72
2018-09-03T00:25:52.019Z,45.52
2018-09-03T00:27:01.694Z,45.72
2018-09-03T00:28:11.641Z,45.81
2018-09-03T00:29:21.075Z,45.62
2018-09-03T00:30:31.008Z,45.91
2018-09-03T00:31:40.703Z,45.52
2018-09-03T00:32:50.632Z,45.91
2018-09-03T00:34:00.305Z,45.72
2018-09-03T00:35:09.471Z,45.81
2018-09-03T00:36:18.515Z,45.72
2018-09-03T00:37:27.690Z,45.72
2018-09-03T00:38:37.369Z,45.52
2018-09-03T00:39:46.275Z,45.52
2018-09-03T00:40:55.185Z,45.52
2018-09-03T00:42:04.619Z,45.52
2018-09-03T00:43:14.090Z,45.52
2018-09-03T00:44:23.564Z,45.81
2018-09-03T00:45:33.051Z,45.52
2018-09-03T00:46:42.478Z,45.52
2018-09-03T00:47:51.939Z,45.52
2018-09-03T00:49:01.374Z,45.91
2018-09-03T00:50:10.831Z,45.52
2018-09-03T00:51:20.508Z,45.52
2018-09-03T00:52:29.957Z,45.52
2018-09-03T00:53:39.118Z,45.52
2018-09-03T00:54:48.561Z,45.62
2018-09-03T00:55:57.726Z,45.72
2018-09-03T00:57:06.887Z,45.72
2018-09-03T00:58:16.354Z,45.52
2018-09-03T00:59:26.301Z,45.72
2018-09-03T01:00:35.481Z,45.81
2018-09-03T01:01:45.504Z,45.81
2018-09-03T01:02:54.423Z,45.72
2018-09-03T01:04:03.858Z,45.72
2018-09-03T01:05:13.285Z,45.81
2018-09-03T01:06:23.016Z,45.64
2018-09-03T01:07:32.181Z,45.72
2018-09-03T01:08:41.593Z,45.72
2018-09-03T01:09:50.753Z,45.72
2018-09-03T01:10:59.932Z,45.62
2018-09-03T01:12:09.350Z,45.72
2018-09-03T01:13:18.564Z,45.52
2018-09-03T01:14:27.992Z,45.72
2018-09-03T01:15:37.164Z,45.72
2018-09-03T01:16:46.952Z,45.62
2018-09-03T01:17:56.384Z,45.72
2018-09-03T01:19:05.566Z,45.52
2018-09-03T01:20:14.993Z,45.72
2018-09-03T01:21:24.417Z,45.52
2018-09-03T01:22:33.068Z,45.52
2018-09-03T01:23:42.532Z,45.72
2018-09-03T01:24:51.682Z,45.72
2018-09-03T01:26:01.385Z,45.52
2018-09-03T01:27:11.073Z,45.72
2018-09-03T01:28:19.979Z,45.72
2018-09-03T01:29:29.290Z,45.62
2018-09-03T01:30:39.072Z,45.72
2018-09-03T01:31:49.007Z,45.62
2018-09-03T01:32:58.693Z,45.62
2018-09-03T01:34:07.605Z,45.72
2018-09-03T01:35:16.526Z,45.72
2018-09-03T01:36:25.959Z,45.72
2018-09-03T01:37:35.404Z,45.72
2018-09-03T01:38:44.819Z,45.72
2018-09-03T01:39:54.537Z,45.72
2018-09-03T01:41:04.210Z,45.72
2018-09-03T01:42:12.878Z,45.91
2018-09-03T01:43:22.042Z,45.52
2018-09-03T01:44:32.021Z,45.52
2018-09-03T01:45:41.192Z,45.52
2018-09-03T01:46:50.883Z,45.72
2018-09-03T01:48:00.579Z,45.72
2018-09-03T01:49:10.030Z,45.62
2018-09-03T01:50:19.456Z,45.72
2018-09-03T01:51:28.369Z,45.72
2018-09-03T01:52:38.065Z,45.72
2018-09-03T01:53:46.997Z,45.72
2018-09-03T01:54:56.694Z,45.72
2018-09-03T01:56:06.134Z,45.72
2018-09-03T01:57:15.809Z,45.72
2018-09-03T01:58:25.265Z,45.81
2018-09-03T01:59:34.705Z,45.72
2018-09-03T02:00:43.629Z,45.72
2018-09-03T02:01:52.540Z,45.72
2018-09-03T02:03:02.229Z,45.72
2018-09-03T02:04:11.914Z,45.81
2018-09-03T02:05:21.618Z,45.72
2018-09-03T02:06:31.302Z,45.72
2018-09-03T02:07:41.255Z,45.81
2018-09-03T02:08:50.686Z,45.72
2018-09-03T02:10:00.436Z,45.62
2018-09-03T02:11:09.861Z,45.62
2018-09-03T02:12:18.780Z,45.72
2018-09-03T02:13:28.483Z,45.81
2018-09-03T02:14:37.455Z,45.72
2018-09-03T02:15:47.394Z,45.81
2018-09-03T02:16:56.564Z,45.72
2018-09-03T02:18:06.002Z,45.72
2018-09-03T02:19:15.495Z,45.62
2018-09-03T02:20:24.404Z,45.72
2018-09-03T02:21:34.096Z,45.72
2018-09-03T02:22:43.573Z,45.72
2018-09-03T02:23:52.755Z,45.72
2018-09-03T02:25:01.923Z,45.72
2018-09-03T02:26:11.600Z,45.81
2018-09-03T02:27:21.021Z,45.72
2018-09-03T02:28:30.200Z,45.81
2018-09-03T02:29:39.628Z,45.81
2018-09-03T02:30:49.129Z,45.62
2018-09-03T02:31:58.570Z,45.62
2018-09-03T02:33:08.032Z,45.72
2018-09-03T02:34:17.474Z,45.72
2018-09-03T02:35:26.923Z,45.42
2018-09-03T02:36:36.349Z,45.81
2018-09-03T02:37:46.033Z,45.72
2018-09-03T02:38:55.482Z,45.72
2018-09-03T02:40:05.449Z,45.42
2018-09-03T02:41:14.344Z,45.72
2018-09-03T02:42:23.531Z,45.81
2018-09-03T02:43:33.218Z,45.72
2018-09-03T02:44:42.905Z,45.72
2018-09-03T02:45:52.406Z,45.81
2018-09-03T02:47:02.103Z,45.81
2018-09-03T02:48:11.278Z,45.81
2018-09-03T02:49:21.230Z,45.72
2018-09-03T02:50:30.935Z,45.81
2018-09-03T02:51:39.879Z,45.42
2018-09-03T02:52:49.592Z,45.81
2018-09-03T02:53:58.504Z,45.81
2018-09-03T02:55:07.678Z,45.72
2018-09-03T02:56:17.415Z,45.81
2018-09-03T02:57:27.363Z,45.72
2018-09-03T02:58:36.794Z,45.72
2018-09-03T02:59:45.970Z,45.81
2018-09-03T03:00:55.923Z,45.72
2018-09-03T03:02:05.885Z,45.81
2018-09-03T03:03:15.567Z,45.81
2018-09-03T03:04:24.741Z,45.81
2018-09-03T03:05:34.417Z,45.72
2018-09-03T03:06:44.108Z,45.72
2018-09-03T03:07:53.781Z,45.72
2018-09-03T03:09:03.238Z,45.72
2018-09-03T03:10:12.940Z,45.72
2018-09-03T03:11:21.894Z,45.72
2018-09-03T03:12:31.628Z,45.72
2018-09-03T03:13:40.820Z,45.72
2018-09-03T03:14:49.999Z,45.42
2018-09-03T03:15:59.462Z,45.72
2018-09-03T03:17:08.870Z,45.62
2018-09-03T03:18:18.049Z,45.72
2018-09-03T03:19:27.491Z,45.62
2018-09-03T03:20:36.679Z,45.72
2018-09-03T03:21:46.114Z,45.62
2018-09-03T03:22:55.299Z,45.72
2018-09-03T03:24:04.470Z,45.72
2018-09-03T03:25:13.900Z,45.72
2018-09-03T03:26:23.588Z,45.72
2018-09-03T03:27:33.300Z,45.81
2018-09-03T03:28:43.274Z,45.72
2018-09-03T03:29:52.467Z,45.72
2018-09-03T03:31:01.639Z,45.72
2018-09-03T03:32:10.845Z,45.72
2018-09-03T03:33:20.311Z,45.62
2018-09-03T03:34:29.493Z,45.72
2018-09-03T03:35:38.925Z,45.62
2018-09-03T03:36:48.088Z,45.62
2018-09-03T03:37:57.550Z,45.72
2018-09-03T03:39:06.716Z,45.72
2018-09-03T03:40:16.425Z,45.52
2018-09-03T03:41:25.859Z,45.72
2018-09-03T03:42:35.034Z,45.62
2018-09-03T03:43:44.503Z,45.62
2018-09-03T03:44:53.922Z,45.81
2018-09-03T03:46:03.355Z,45.72
2018-09-03T03:47:12.804Z,45.72
2018-09-03T03:48:22.239Z,45.72
2018-09-03T03:49:32.249Z,45.72
2018-09-03T03:50:41.673Z,45.72
2018-09-03T03:51:51.141Z,45.72
2018-09-03T03:53:00.810Z,45.52
2018-09-03T03:54:09.723Z,45.52
2018-09-03T03:55:19.558Z,45.72
2018-09-03T03:56:28.991Z,45.72
2018-09-03T03:57:38.696Z,45.72
2018-09-03T03:58:47.599Z,45.72
2018-09-03T03:59:57.602Z,45.72
2018-09-03T04:01:06.778Z,45.72
2018-09-03T04:02:16.467Z,45.62
2018-09-03T04:03:25.644Z,45.62
2018-09-03T04:04:35.590Z,45.62
2018-09-03T04:05:44.764Z,45.52
2018-09-03T04:06:53.941Z,45.62
2018-09-03T04:08:03.390Z,45.62
2018-09-03T04:09:13.348Z,45.81
2018-09-03T04:10:22.837Z,45.72
2018-09-03T04:11:32.288Z,45.52
2018-09-03T04:12:41.459Z,45.81
2018-09-03T04:13:51.173Z,45.72
2018-09-03T04:15:00.598Z,45.62
2018-09-03T04:16:10.132Z,45.62
2018-09-03T04:17:19.377Z,45.72
2018-09-03T04:18:28.814Z,45.72
2018-09-03T04:19:38.778Z,45.72
2018-09-03T04:20:48.470Z,45.72
2018-09-03T04:21:57.651Z,45.72
2018-09-03T04:23:07.626Z,45.62
2018-09-03T04:24:18.055Z,45.72
2018-09-03T04:25:27.215Z,45.72
2018-09-03T04:26:36.645Z,45.72
2018-09-03T04:27:46.072Z,45.72
2018-09-03T04:28:56.032Z,45.72
2018-09-03T04:30:05.540Z,45.81
2018-09-03T04:31:14.710Z,45.72
2018-09-03T04:32:24.396Z,45.72
2018-09-03T04:33:33.837Z,45.81
2018-09-03T04:34:43.321Z,45.72
2018-09-03T04:35:51.980Z,45.72
2018-09-03T04:37:01.454Z,45.72
2018-09-03T04:38:10.887Z,45.72
2018-09-03T04:39:20.061Z,45.72
2018-09-03T04:40:29.491Z,45.81
2018-09-03T04:41:38.678Z,45.72
2018-09-03T04:42:48.488Z,45.72
2018-09-03T04:43:57.663Z,45.81
2018-09-03T04:45:07.112Z,45.72
2018-09-03T04:46:16.026Z,45.72
2018-09-03T04:47:25.448Z,45.72
2018-09-03T04:48:35.135Z,45.72
2018-09-03T04:49:44.358Z,45.81
2018-09-03T04:50:53.519Z,45.72
2018-09-03T04:52:02.947Z,45.72
2018-09-03T04:53:12.166Z,45.62
2018-09-03T04:54:21.084Z,45.72
2018-09-03T04:55:30.272Z,45.72
2018-09-03T04:56:39.441Z,45.62
2018-09-03T04:57:49.125Z,45.81
2018-09-03T04:58:58.300Z,45.72
2018-09-03T05:00:07.985Z,45.72
2018-09-03T05:01:17.412Z,45.72
2018-09-03T05:02:26.335Z,45.81
2018-09-03T05:03:35.787Z,45.72
2018-09-03T05:04:45.247Z,45.72
2018-09-03T05:05:54.451Z,45.72
2018-09-03T05:07:03.961Z,45.72
2018-09-03T05:08:13.400Z,45.72
2018-09-03T05:09:22.612Z,45.72
2018-09-03T05:10:32.541Z,45.81
2018-09-03T05:11:42.052Z,45.81
2018-09-03T05:12:51.798Z,45.81
2018-09-03T05:14:00.966Z,45.62
2018-09-03T05:15:10.395Z,45.72
2018-09-03T05:16:19.576Z,45.72
2018-09-03T05:17:29.949Z,45.81
2018-09-03T05:18:39.397Z,45.81
2018-09-03T05:19:49.095Z,45.81
2018-09-03T05:20:58.558Z,45.72
2018-09-03T05:22:08.521Z,45.72
2018-09-03T05:23:18.223Z,45.72
2018-09-03T05:24:27.153Z,45.81
2018-09-03T05:25:36.310Z,45.62
2018-09-03T05:26:46.024Z,45.81
2018-09-03T05:27:55.471Z,45.72
2018-09-03T05:29:04.959Z,45.72
2018-09-03T05:30:14.647Z,45.72
2018-09-03T05:31:24.247Z,45.72
2018-09-03T05:32:33.163Z,45.72
2018-09-03T05:33:42.859Z,45.72
2018-09-03T05:34:52.046Z,45.72
2018-09-03T05:36:01.744Z,45.72
2018-09-03T05:37:10.935Z,45.72
2018-09-03T05:38:20.433Z,45.72
2018-09-03T05:39:29.862Z,45.81
2018-09-03T05:40:39.572Z,45.72
2018-09-03T05:41:48.735Z,45.81
2018-09-03T05:42:57.984Z,45.72
2018-09-03T05:44:08.183Z,45.72
2018-09-03T05:45:17.304Z,45.62
2018-09-03T05:46:26.741Z,45.81
2018-09-03T05:47:35.907Z,45.62
2018-09-03T05:48:45.880Z,45.81
2018-09-03T05:49:55.566Z,45.72
2018-09-03T05:51:04.994Z,45.72
2018-09-03T05:52:14.700Z,45.72
2018-09-03T05:53:23.908Z,45.72
2018-09-03T05:54:33.637Z,45.72
2018-09-03T05:55:42.562Z,45.62
2018-09-03T05:56:52.320Z,45.72
2018-09-03T05:58:01.798Z,45.81
2018-09-03T05:59:11.598Z,45.72
2018-09-03T06:00:21.341Z,45.62
2018-09-03T06:01:31.275Z,45.81
2018-09-03T06:02:40.761Z,45.81
2018-09-03T06:03:50.474Z,45.81
2018-09-03T06:04:59.801Z,45.72
2018-09-03T06:06:09.849Z,45.72
2018-09-03T06:07:19.797Z,45.62
2018-09-03T06:08:29.536Z,45.81
2018-09-03T06:09:38.966Z,45.81
2018-09-03T06:10:48.128Z,45.72
2018-09-03T06:11:57.306Z,45.81
2018-09-03T06:13:06.477Z,45.81
2018-09-03T06:14:15.908Z,45.72
2018-09-03T06:15:25.625Z,45.81
2018-09-03T06:16:35.307Z,45.81
2018-09-03T06:17:44.508Z,45.42
2018-09-03T06:18:54.622Z,45.72
2018-09-03T06:20:04.372Z,45.42
2018-09-03T06:21:14.318Z,45.81
2018-09-03T06:22:23.756Z,45.81
2018-09-03T06:23:32.940Z,45.42
2018-09-03T06:24:42.380Z,45.72
2018-09-03T06:25:51.814Z,45.42
2018-09-03T06:27:01.250Z,45.81
2018-09-03T06:28:10.692Z,45.91
2018-09-03T06:29:19.607Z,45.62
2018-09-03T06:30:28.575Z,45.72
2018-09-03T06:31:38.038Z,45.62
2018-09-03T06:32:47.801Z,45.42
2018-09-03T06:33:57.709Z,45.42
2018-09-03T06:35:07.153Z,45.81
2018-09-03T06:36:16.346Z,45.42
2018-09-03T06:37:25.522Z,45.42
2018-09-03T06:38:34.962Z,45.72
2018-09-03T06:39:44.169Z,45.72
2018-09-03T06:40:53.348Z,45.72
2018-09-03T06:42:02.509Z,45.62
2018-09-03T06:43:11.941Z,45.72
2018-09-03T06:44:21.122Z,45.72
2018-09-03T06:45:31.081Z,45.72
2018-09-03T06:46:40.285Z,45.72
2018-09-03T06:47:48.953Z,45.81
2018-09-03T06:48:58.385Z,45.72
2018-09-03T06:50:08.076Z,45.72
2018-09-03T06:51:17.506Z,45.72
2018-09-03T06:52:27.206Z,45.72
2018-09-03T06:53:36.737Z,45.72
2018-09-03T06:54:46.300Z,45.72
2018-09-03T06:55:55.764Z,45.72
2018-09-03T06:57:05.446Z,45.81
2018-09-03T06:58:14.388Z,45.72
2018-09-03T06:59:24.091Z,45.72
2018-09-03T07:00:33.920Z,45.72
2018-09-03T07:01:43.122Z,45.72
2018-09-03T07:02:52.292Z,45.62
2018-09-03T07:04:01.458Z,45.72
2018-09-03T07:05:10.871Z,45.72
2018-09-03T07:06:20.556Z,45.72
2018-09-03T07:07:30.041Z,45.72
2018-09-03T07:08:39.732Z,45.72
2018-09-03T07:09:49.200Z,45.72
2018-09-03T07:10:58.927Z,45.72
2018-09-03T07:12:08.374Z,45.72
2018-09-03T07:13:17.559Z,45.72
2018-09-03T07:14:27.268Z,45.72
2018-09-03T07:15:36.706Z,45.72
2018-09-03T07:16:45.876Z,45.72
2018-09-03T07:17:55.181Z,45.72
2018-09-03T07:19:04.625Z,45.62
2018-09-03T07:20:14.052Z,45.72
2018-09-03T07:21:23.515Z,45.72
2018-09-03T07:22:32.707Z,45.72
2018-09-03T07:23:42.162Z,45.72
2018-09-03T07:24:51.582Z,45.62
2018-09-03T07:26:00.807Z,45.81
2018-09-03T07:27:09.982Z,45.72
2018-09-03T07:28:19.427Z,45.72
2018-09-03T07:29:28.607Z,45.52
2018-09-03T07:30:37.550Z,45.72
2018-09-03T07:31:47.014Z,45.72
2018-09-03T07:32:56.461Z,45.62
2018-09-03T07:34:05.901Z,45.72
2018-09-03T07:35:15.501Z,45.72
2018-09-03T07:36:25.010Z,45.72
2018-09-03T07:37:34.691Z,45.72
2018-09-03T07:38:44.137Z,45.91
2018-09-03T07:39:53.827Z,45.62
2018-09-03T07:41:03.263Z,45.72
2018-09-03T07:42:12.443Z,45.72
2018-09-03T07:43:22.140Z,45.52
2018-09-03T07:44:31.568Z,45.74
2018-09-03T07:45:41.542Z,45.52
2018-09-03T07:46:51.014Z,45.52
2018-09-03T07:48:00.474Z,45.72
2018-09-03T07:49:09.911Z,45.81
2018-09-03T07:50:19.346Z,45.74
2018-09-03T07:51:28.542Z,45.52
2018-09-03T07:52:38.227Z,45.74
2018-09-03T07:53:47.400Z,45.93
2018-09-03T07:54:57.141Z,45.72
2018-09-03T07:56:06.613Z,45.81
2018-09-03T07:57:16.041Z,45.81
2018-09-03T07:58:24.959Z,45.81
2018-09-03T07:59:34.641Z,45.52
2018-09-03T08:00:43.842Z,45.81
2018-09-03T08:01:53.290Z,45.52
2018-09-03T08:03:02.727Z,45.72
2018-09-03T08:04:11.920Z,45.72
2018-09-03T08:05:21.091Z,45.52
2018-09-03T08:06:30.959Z,45.52
2018-09-03T08:07:40.408Z,46
2018-09-03T08:08:49.595Z,45.81
2018-09-03T08:09:58.766Z,45.52
2018-09-03T08:11:07.940Z,45.72
2018-09-03T08:12:17.172Z,45.54
2018-09-03T08:13:26.103Z,45.52
2018-09-03T08:14:35.296Z,45.72
2018-09-03T08:15:45.320Z,45.72
2018-09-03T08:16:54.516Z,45.72
2018-09-03T08:18:03.433Z,45.52
2018-09-03T08:19:12.627Z,45.52
2018-09-03T08:20:21.789Z,45.72
2018-09-03T08:21:30.710Z,45.72
2018-09-03T08:22:40.667Z,45.72
2018-09-03T08:23:50.095Z,45.72
2018-09-03T08:24:59.553Z,45.52
2018-09-03T08:26:08.725Z,45.52
2018-09-03T08:27:17.660Z,45.62
2018-09-03T08:28:27.633Z,45.81
2018-09-03T08:29:37.067Z,45.52
2018-09-03T08:30:46.519Z,45.54
2018-09-03T08:31:56.199Z,45.72
2018-09-03T08:33:05.615Z,45.52
2018-09-03T08:34:14.517Z,45.52
2018-09-03T08:35:23.957Z,45.52
2018-09-03T08:36:34.004Z,45.62
2018-09-03T08:37:43.451Z,45.54
2018-09-03T08:38:52.907Z,45.72
2018-09-03T08:40:02.170Z,45.72
2018-09-03T08:41:11.617Z,45.81
2018-09-03T08:42:21.295Z,45.52
2018-09-03T08:43:30.720Z,45.81
2018-09-03T08:44:39.896Z,45.52
2018-09-03T08:45:50.139Z,45.52
2018-09-03T08:46:59.823Z,45.72
2018-09-03T08:48:09.866Z,45.74
2018-09-03T08:49:19.547Z,45.52
2018-09-03T08:50:28.513Z,45.72
2018-09-03T08:51:38.232Z,45.81
2018-09-03T08:52:47.918Z,45.52
2018-09-03T08:53:57.622Z,45.72
2018-09-03T08:55:06.524Z,45.72
2018-09-03T08:56:15.681Z,45.72
2018-09-03T08:57:24.857Z,45.72
2018-09-03T08:58:34.539Z,45.62
2018-09-03T08:59:43.767Z,45.72
2018-09-03T09:00:52.737Z,45.52
2018-09-03T09:02:02.179Z,45.52
2018-09-03T09:03:11.343Z,45.72
2018-09-03T09:04:21.293Z,45.72
2018-09-03T09:05:30.720Z,45.72
2018-09-03T09:06:39.634Z,45.72
2018-09-03T09:07:48.805Z,45.62
2018-09-03T09:08:58.759Z,45.52
2018-09-03T09:10:08.197Z,45.72
2018-09-03T09:11:17.653Z,45.52
2018-09-03T09:12:26.804Z,45.52
2018-09-03T09:13:36.515Z,45.81
2018-09-03T09:14:46.466Z,45.91
2018-09-03T09:15:55.629Z,45.52
2018-09-03T09:17:05.068Z,45.72
2018-09-03T09:18:14.241Z,45.72
2018-09-03T09:19:23.671Z,45.52
2018-09-03T09:20:33.355Z,45.52
2018-09-03T09:21:43.035Z,45.72
2018-09-03T09:22:52.481Z,45.81
2018-09-03T09:24:01.660Z,45.72
2018-09-03T09:25:10.649Z,45.52
2018-09-03T09:26:20.641Z,45.72
2018-09-03T09:27:29.556Z,45.74
2018-09-03T09:28:38.784Z,45.72
2018-09-03T09:29:48.719Z,45.72
2018-09-03T09:30:58.154Z,45.62
2018-09-03T09:32:07.165Z,45.72
2018-09-03T09:33:16.830Z,45.81
2018-09-03T09:34:26.263Z,45.81
2018-09-03T09:35:35.437Z,45.72
2018-09-03T09:36:44.929Z,45.72
2018-09-03T09:37:55.142Z,45.62
2018-09-03T09:39:04.844Z,45.62
2018-09-03T09:40:14.010Z,45.74
2018-09-03T09:41:23.818Z,45.81
2018-09-03T09:42:33.244Z,45.81
2018-09-03T09:43:42.394Z,45.81
2018-09-03T09:44:51.875Z,45.54
2018-09-03T09:46:01.327Z,45.72
2018-09-03T09:47:11.033Z,45.72
2018-09-03T09:48:20.459Z,45.81
2018-09-03T09:49:30.148Z,45.62
2018-09-03T09:50:40.085Z,45.83
2018-09-03T09:51:49.275Z,45.72
2018-09-03T09:52:59.299Z,45.81
2018-09-03T09:54:08.733Z,45.81
2018-09-03T09:55:18.421Z,45.81
2018-09-03T09:56:27.169Z,45.72
2018-09-03T09:57:36.621Z,45.72
2018-09-03T09:58:46.063Z,45.52
2018-09-03T09:59:55.248Z,45.74
2018-09-03T10:01:04.199Z,45.62
2018-09-03T10:02:13.368Z,45.62
2018-09-03T10:03:22.827Z,45.74
2018-09-03T10:04:32.508Z,45.62
2018-09-03T10:05:41.703Z,45.72
2018-09-03T10:06:51.406Z,45.74
2018-09-03T10:08:00.575Z,45.62
2018-09-03T10:09:10.013Z,45.64
2018-09-03T10:10:19.615Z,45.52
2018-09-03T10:11:28.812Z,45.54
2018-09-03T10:12:38.495Z,45.74
2018-09-03T10:13:47.516Z,45.72
2018-09-03T10:14:57.469Z,45.64
2018-09-03T10:16:06.928Z,45.83
2018-09-03T10:17:16.112Z,45.64
2018-09-03T10:18:25.315Z,45.64
2018-09-03T10:19:34.508Z,45.72
2018-09-03T10:20:44.337Z,45.52
2018-09-03T10:21:54.406Z,45.74
2018-09-03T10:23:03.860Z,45.54
2018-09-03T10:24:13.547Z,45.74
2018-09-03T10:25:22.987Z,45.64
2018-09-03T10:26:32.733Z,45.72
2018-09-03T10:27:42.670Z,45.64
2018-09-03T10:28:52.117Z,45.64
2018-09-03T10:30:01.803Z,45.74
2018-09-03T10:31:11.237Z,45.62
2018-09-03T10:32:20.664Z,45.74
2018-09-03T10:33:30.437Z,45.74
2018-09-03T10:34:39.613Z,45.45
2018-09-03T10:35:49.058Z,45.74
2018-09-03T10:36:58.745Z,45.52
2018-09-03T10:38:08.902Z,45.72
2018-09-03T10:39:19.302Z,45.64
2018-09-03T10:40:28.486Z,45.54
2018-09-03T10:41:38.162Z,45.64
2018-09-03T10:42:47.876Z,45.64
2018-09-03T10:43:57.311Z,45.64
2018-09-03T10:45:07.330Z,45.74
2018-09-03T10:46:16.841Z,45.42
2018-09-03T10:47:26.241Z,45.62
2018-09-03T10:48:36.136Z,45.45
2018-09-03T10:49:45.313Z,45.74
2018-09-03T10:50:54.807Z,45.45
2018-09-03T10:52:03.979Z,45.64
2018-09-03T10:53:13.153Z,45.64
2018-09-03T10:54:22.604Z,45.54
2018-09-03T10:55:31.765Z,45.42
2018-09-03T10:56:41.001Z,45.54
2018-09-03T10:57:50.454Z,45.64
2018-09-03T10:58:59.520Z,45.45
2018-09-03T11:00:08.970Z,45.54
2018-09-03T11:01:18.136Z,45.45
2018-09-03T11:02:27.333Z,45.64
2018-09-03T11:03:36.532Z,45.72
2018-09-03T11:04:45.688Z,45.64
2018-09-03T11:05:54.628Z,45.81
2018-09-03T11:07:04.301Z,45.83
2018-09-03T11:08:13.485Z,45.74
2018-09-03T11:09:22.404Z,45.62
2018-09-03T11:10:32.094Z,45.54
2018-09-03T11:11:41.583Z,45.54
2018-09-03T11:12:51.014Z,45.64
2018-09-03T11:14:00.773Z,45.52
2018-09-03T11:15:10.329Z,45.64
2018-09-03T11:16:19.822Z,45.74
2018-09-03T11:17:28.994Z,45.74
2018-09-03T11:18:38.168Z,45.93
2018-09-03T11:19:48.204Z,45.54
2018-09-03T11:20:57.430Z,45.54
2018-09-03T11:22:06.954Z,45.54
2018-09-03T11:23:16.152Z,45.93
2018-09-03T11:24:25.350Z,45.93
2018-09-03T11:25:35.032Z,45.64
2018-09-03T11:26:44.465Z,45.74
2018-09-03T11:27:54.215Z,45.74
2018-09-03T11:29:03.908Z,45.93
2018-09-03T11:30:13.658Z,45.93
2018-09-03T11:31:23.153Z,45.93
2018-09-03T11:32:32.587Z,45.64
2018-09-03T11:33:42.037Z,45.93
2018-09-03T11:34:51.707Z,45.93
2018-09-03T11:36:01.470Z,45.83
2018-09-03T11:37:10.888Z,45.74
2018-09-03T11:38:20.589Z,45.93
2018-09-03T11:39:29.753Z,46.03
2018-09-03T11:40:38.667Z,45.91
2018-09-03T11:41:48.491Z,45.54
2018-09-03T11:42:57.691Z,45.74
2018-09-03T11:44:07.373Z,45.74
2018-09-03T11:45:16.547Z,45.54
2018-09-03T11:46:25.959Z,45.54
2018-09-03T11:47:35.159Z,45.54
2018-09-03T11:48:44.618Z,45.64
2018-09-03T11:49:54.078Z,45.74
2018-09-03T11:51:03.771Z,45.54
2018-09-03T11:52:12.927Z,45.42
2018-09-03T11:53:22.352Z,45.54
2018-09-03T11:54:31.660Z,45.52
2018-09-03T11:55:41.582Z,45.74
2018-09-03T11:56:51.129Z,45.64
2018-09-03T11:58:00.990Z,45.64
2018-09-03T11:59:10.250Z,45.45
2018-09-03T12:00:20.195Z,45.64
2018-09-03T12:01:29.168Z,45.54
2018-09-03T12:02:38.592Z,45.52
2018-09-03T12:03:48.020Z,45.72
2018-09-03T12:04:57.697Z,45.54
2018-09-03T12:06:07.173Z,45.54
2018-09-03T12:07:16.603Z,45.54
2018-09-03T12:08:26.026Z,45.64
2018-09-03T12:09:35.475Z,45.74
2018-09-03T12:10:44.691Z,45.74
2018-09-03T12:11:54.100Z,45.83
2018-09-03T12:13:03.006Z,45.83
2018-09-03T12:14:12.416Z,45.64
2018-09-03T12:15:22.106Z,45.54
2018-09-03T12:16:31.261Z,45.64
2018-09-03T12:17:40.697Z,45.93
2018-09-03T12:18:49.352Z,45.64
2018-09-03T12:19:58.781Z,45.93
2018-09-03T12:21:08.622Z,46.03
2018-09-03T12:22:18.408Z,45.93
2018-09-03T12:23:27.314Z,45.93
2018-09-03T12:24:37.258Z,46.22
2018-09-03T12:25:46.933Z,46.22
2018-09-03T12:26:56.630Z,46.03
2018-09-03T12:28:06.311Z,46.03
2018-09-03T12:29:15.771Z,46.12
2018-09-03T12:30:25.249Z,46.22
2018-09-03T12:31:35.039Z,46.12
2018-09-03T12:32:44.829Z,46.22
2018-09-03T12:33:54.000Z,46.12
2018-09-03T12:35:03.423Z,46.22
2018-09-03T12:36:12.585Z,46.12
2018-09-03T12:37:22.325Z,46.03
2018-09-03T12:38:32.278Z,46.03
2018-09-03T12:39:41.733Z,45.93
2018-09-03T12:40:51.295Z,46.12
2018-09-03T12:42:00.720Z,46.22
2018-09-03T12:43:09.911Z,45.83
2018-09-03T12:44:19.378Z,46.03
2018-09-03T12:45:28.805Z,45.93
2018-09-03T12:46:37.748Z,45.83
2018-09-03T12:47:47.171Z,45.83
2018-09-03T12:48:56.373Z,45.74
2018-09-03T12:50:06.194Z,45.74
2018-09-03T12:51:16.141Z,45.83
2018-09-03T12:52:25.788Z,46.12
2018-09-03T12:53:34.958Z,46.12
2018-09-03T12:54:44.646Z,46.03
2018-09-03T12:55:54.091Z,46.22
2018-09-03T12:57:03.799Z,46.03
2018-09-03T12:58:12.959Z,46.22
2018-09-03T12:59:22.706Z,46.32
2018-09-03T13:00:38.673Z,46.32
2018-09-03T13:01:46.467Z,46.32
2018-09-03T13:02:56.073Z,46.32
2018-09-03T13:04:05.637Z,46.22
2018-09-03T13:05:15.107Z,46.22
2018-09-03T13:06:25.434Z,46.51
2018-09-03T13:07:34.434Z,46.32
2018-09-03T13:08:44.142Z,46.51
2018-09-03T13:09:53.581Z,46.7
2018-09-03T13:11:03.007Z,46.61
2018-09-03T13:12:12.433Z,46.42
2018-09-03T13:13:22.114Z,46.42
2018-09-03T13:14:32.251Z,46.51
2018-09-03T13:15:41.935Z,46.42
2018-09-03T13:16:51.652Z,46.42
2018-09-03T13:18:00.907Z,46.12
2018-09-03T13:19:09.898Z,46.42
2018-09-03T13:20:19.655Z,46.42
2018-09-03T13:21:29.334Z,46.32
2018-09-03T13:22:38.761Z,46.32
2018-09-03T13:23:48.439Z,46.32
2018-09-03T13:24:58.363Z,46.22
2018-09-03T13:26:08.065Z,46.32
2018-09-03T13:27:17.251Z,46.22
2018-09-03T13:28:26.667Z,46.61
2018-09-03T13:29:35.572Z,46.42
2018-09-03T13:30:45.341Z,46.61
2018-09-03T13:31:55.374Z,46.7
2018-09-03T13:33:05.316Z,46.61
2018-09-03T13:34:14.743Z,46.7
2018-09-03T13:35:23.912Z,46.7
2018-09-03T13:36:33.321Z,46.51
2018-09-03T13:37:43.289Z,46.51
2018-09-03T13:38:52.190Z,46.51
2018-09-03T13:40:01.098Z,46.61
2018-09-03T13:41:10.521Z,46.42
2018-09-03T13:42:20.483Z,46.51
2018-09-03T13:43:30.790Z,46.42
2018-09-03T13:44:39.971Z,46.51
2018-09-03T13:45:49.901Z,46.7
2018-09-03T13:46:59.327Z,46.7
2018-09-03T13:48:09.081Z,46.7
2018-09-03T13:49:19.332Z,46.8
2018-09-03T13:50:29.174Z,46.7
2018-09-03T13:51:38.609Z,46.51
2018-09-03T13:52:48.276Z,46.7
2018-09-03T13:53:57.463Z,46.7
2018-09-03T13:55:07.458Z,46.7
2018-09-03T13:56:17.036Z,46.7
2018-09-03T13:57:26.564Z,46.7
2018-09-03T13:58:36.235Z,46.61
2018-09-03T13:59:45.919Z,46.8
2018-09-03T14:00:55.091Z,47
2018-09-03T14:02:04.768Z,46.9
2018-09-03T14:03:14.214Z,46.7
2018-09-03T14:04:23.141Z,46.8
2018-09-03T14:05:32.313Z,46.9
2018-09-03T14:06:41.825Z,46.8
2018-09-03T14:07:51.629Z,46.8
2018-09-03T14:09:00.790Z,47
2018-09-03T14:10:10.331Z,46.51
2018-09-03T14:11:19.677Z,46.8
2018-09-03T14:12:29.733Z,46.8
2018-09-03T14:13:39.411Z,46.9
2018-09-03T14:14:49.088Z,46.9
2018-09-03T14:15:58.778Z,47.09
2018-09-03T14:17:08.239Z,46.9
2018-09-03T14:18:17.909Z,47.09
2018-09-03T14:19:27.403Z,47.38
2018-09-03T14:20:37.183Z,46.7
2018-09-03T14:21:46.880Z,46.7
2018-09-03T14:22:56.852Z,47.58
2018-09-03T14:24:06.535Z,47.58
2018-09-03T14:25:16.003Z,47.48
2018-09-03T14:26:24.930Z,47.58
2018-09-03T14:27:34.159Z,47.48
2018-09-03T14:28:43.621Z,47.28
2018-09-03T14:29:53.130Z,47.28
2018-09-03T14:31:02.290Z,47.28
2018-09-03T14:32:11.247Z,47.38
2018-09-03T14:33:20.402Z,47.28
2018-09-03T14:34:29.298Z,47.38
2018-09-03T14:35:38.484Z,47.28
2018-09-03T14:36:47.647Z,47.28
2018-09-03T14:37:56.910Z,47.48
2018-09-03T14:39:06.596Z,47.38
2018-09-03T14:40:16.484Z,47.28
2018-09-03T14:41:26.372Z,47.38
2018-09-03T14:42:36.354Z,47.38
2018-09-03T14:43:46.005Z,47.38
2018-09-03T14:44:55.158Z,47.38
2018-09-03T14:46:04.861Z,47.28
2018-09-03T14:47:14.811Z,47.28
2018-09-03T14:48:24.572Z,47.38
2018-09-03T14:49:34.655Z,47.38
2018-09-03T14:50:44.695Z,47.28
2018-09-03T14:51:55.306Z,47.19
2018-09-03T14:53:04.455Z,47.28
2018-09-03T14:54:13.861Z,47.19
2018-09-03T14:55:23.286Z,47.38